1996 DOLORESSE (1996043S07053)


On this page: IBTrACS data - Map and Plots - Positions - Intensities - Original source data

Summary

Start Feb 11
End Feb 20
Basin SI
LMI 75 kt
Sources jtwc_sh
reunion
neumann
In WMO? Yes
Previous storm 1996 DENNIS (SP)
Previous in basin 1996 HSK1296 (SI)
Concurrent storms 1996 DENNIS (SP)
1996 DOLORESSE (SI)
1996 HSK1596 (SI)
1996 EDWIGE (SI)
Next in basin 1996 HSK1596 (SI)
Next storm 1996 HSK1596 (SI)

top of page IBTrACS Data: File Access

top of page HURSAT Data: File Access

Image of storm

top of page Plots:

Map of storm track will not appear if FTP is down
Time series of cyclone Maximum Sustained Wind will not appear if FTP is down
Time series of cyclone Minimum Central Pressure will not appear if FTP is down

top of page Track Data:Position

jtwc_sh reunion neumann
Date Lat Lon Lat Lon Lat Lon
1996-02-11 18:00:00 -7.3 53.0 -7.3 53.0
1996-02-12 00:00:00 -7.2 52.6 -7.2 52.6
1996-02-12 06:00:00 -7.1 52.3 -7.1 52.3
1996-02-12 12:00:00 -7.0 52.0 -6.7 52.8 -7.0 52.0
1996-02-12 18:00:00 -7.0 51.7 -6.9 52.3 -7.0 51.7
1996-02-13 00:00:00 -7.0 51.3 -7.1 51.9 -7.0 51.3
1996-02-13 06:00:00 -7.1 51.0 -7.5 51.6 -7.1 51.0
1996-02-13 12:00:00 -7.4 50.7 -8.2 51.2 -7.4 50.7
1996-02-13 18:00:00 -7.9 50.1 -8.8 50.1 -7.9 50.1
1996-02-14 00:00:00 -8.4 49.3 -9.2 49.1 -8.4 49.3
1996-02-14 06:00:00 -8.9 48.4 -9.4 48.2 -8.9 48.4
1996-02-14 12:00:00 -9.1 47.3 -9.6 47.1 -9.1 47.3
1996-02-14 18:00:00 -9.2 46.1 -9.8 46.2 -9.2 46.1
1996-02-15 00:00:00 -9.4 45.1 -10.0 45.3 -9.4 45.1
1996-02-15 06:00:00 -9.8 44.3 -10.0 44.5 -9.8 44.3
1996-02-15 12:00:00 -10.0 43.9 -10.0 43.9 -10.0 43.9
1996-02-15 18:00:00 -10.1 43.5 -10.0 43.6 -10.1 43.5
1996-02-16 00:00:00 -10.1 43.1 -10.0 43.1 -10.1 43.1
1996-02-16 06:00:00 -10.1 42.7 -10.1 42.5 -10.1 42.7
1996-02-16 12:00:00 -10.2 42.4 -10.2 42.4 -10.2 42.4
1996-02-16 18:00:00 -10.4 42.3 -10.2 42.5 -10.4 42.3
1996-02-17 00:00:00 -10.5 42.3 -10.3 42.6 -10.5 42.3
1996-02-17 06:00:00 -10.7 42.4 -10.5 42.4 -10.7 42.4
1996-02-17 12:00:00 -11.1 42.5 -11.1 42.5 -11.1 42.5
1996-02-17 18:00:00 -11.6 42.7 -11.7 42.7 -11.6 42.7
jtwc_sh reunion neumann
1996-02-18 00:00:00 -12.4 43.0 -12.3 42.8 -12.4 43.0
1996-02-18 06:00:00 -13.3 43.3 -12.9 42.4 -13.3 43.3
1996-02-18 12:00:00 -14.3 43.7 -13.3 42.1 -14.3 43.7
1996-02-18 18:00:00 -15.1 44.3 -13.6 42.0 -15.1 44.3
1996-02-19 00:00:00 -16.0 45.0 -13.9 42.1 -16.0 45.0
1996-02-19 06:00:00 -17.0 45.3 -14.1 42.2 -17.0 45.3
1996-02-19 12:00:00 -18.0 45.5 -14.2 42.1 -18.0 45.5
1996-02-19 18:00:00 -14.3 41.9
1996-02-20 00:00:00 -14.5 42.1

top of pageTrack Data:Intensity

jtwc_sh reunion neumann
Date Wind Pres Wind Pres Wind Pres
1996-02-11 18:00:00 20. 20.
1996-02-12 00:00:00 20. 20.
1996-02-12 06:00:00 20. 20.
1996-02-12 12:00:00 20. 20. 1005. 20.
1996-02-12 18:00:00 25. 20. 1005. 25.
1996-02-13 00:00:00 25. 20. 1005. 25.
1996-02-13 06:00:00 25. 25. 1003. 25.
1996-02-13 12:00:00 25. 25. 1002. 25.
1996-02-13 18:00:00 25. 25. 1000. 25.
1996-02-14 00:00:00 30. 30. 998. 30.
1996-02-14 06:00:00 30. 30. 998. 30.
1996-02-14 12:00:00 30. 30. 998. 30.
1996-02-14 18:00:00 30. 30. 998. 30.
1996-02-15 00:00:00 35. 28. 999. 35.
1996-02-15 06:00:00 35. 30. 997. 35.
1996-02-15 12:00:00 40. 30. 997. 40.
1996-02-15 18:00:00 45. 30. 995. 45.
1996-02-16 00:00:00 45. 30. 995. 45.
1996-02-16 06:00:00 50. 35. 992. 50.
1996-02-16 12:00:00 55. 40. 988. 55.
1996-02-16 18:00:00 65. 45. 985. 65.
1996-02-17 00:00:00 70. 45. 985. 70.
1996-02-17 06:00:00 75. 45. 985. 75.
1996-02-17 12:00:00 75. 45. 985. 75.
1996-02-17 18:00:00 75. 45. 980. 75.
jtwc_sh reunion neumann
1996-02-18 00:00:00 75. 52. 977. 75.
1996-02-18 06:00:00 75. 52. 977. 75.
1996-02-18 12:00:00 75. 50. 980. 75.
1996-02-18 18:00:00 60. 45. 985. 60.
1996-02-19 00:00:00 45. 40. 990. 45.
1996-02-19 06:00:00 35. 30. 995. 35.
1996-02-19 12:00:00 30. 30. 997. 30.
1996-02-19 18:00:00 28. 998.
1996-02-20 00:00:00 25. 1000.

top of page Links to source data

Source Source file Format
jtwc_sh bsh141996.txt ATCF
reunion WMO-Best-Tracks.txt:Line=17317:doloresse WMO (old format)
neumann tracks.sh:Storm=1050:DOLORESSE:BSH141996:JTWC&Reunion HURDAT